Wetterdaten: aktuell Donnerstag, 23.01.2020 17:03
Datum Zeit Temp. A. Feuchte A. Luftdruck Regen Wind Richtung Richtung Taupunkt Windchill Windben
23.01.2020 17:03 -1,1 C 88 % 1030,2 hPa 0,0 l/m 0,0 km/h (0 Bft) N 0 -2,8 C -1,1 C 0,0 km/h (0 Bft)
23.01.2020 16:03 -0,2 C 88 % 1030,6 hPa 0,0 l/m 0,0 km/h (0 Bft) N 0 -1,9 C -0,2 C 0,0 km/h (0 Bft)
23.01.2020 15:03 -0,2 C 88 % 1031,4 hPa 0,0 l/m 6,4 km/h (2 Bft) NO 45 -1,9 C -0,2 C 8,0 km/h (2 Bft)
23.01.2020 14:03 -0,2 C 88 % 1032,2 hPa 0,0 l/m 6,4 km/h (2 Bft) O-NO 67 -1,9 C -0,2 C 9,7 km/h (2 Bft)
23.01.2020 13:03 -0,7 C 89 % 1032,7 hPa 0,0 l/m 6,4 km/h (2 Bft) O-NO 67 -2,3 C -0,7 C 9,7 km/h (2 Bft)
23.01.2020 12:03 -1,2 C 89 % 1033,9 hPa 0,0 l/m 4,8 km/h (1 Bft) O 90 -2,8 C -1,2 C 11,3 km/h (2 Bft)
23.01.2020 11:03 -1,6 C 92 % 1035,0 hPa 0,0 l/m 9,7 km/h (2 Bft) NO 45 -2,7 C -5,0 C 16,1 km/h (3 Bft)
23.01.2020 10:03 -2,5 C 93 % 1035,9 hPa 0,0 l/m 6,4 km/h (2 Bft) NO 45 -3,5 C -2,5 C 12,9 km/h (3 Bft)
23.01.2020 09:03 -3,1 C 93 % 1036,1 hPa 0,0 l/m 8,0 km/h (2 Bft) O-NO 67 -4,1 C -4,9 C 11,3 km/h (2 Bft)
23.01.2020 08:03 -3,3 C 93 % 1036,5 hPa 0,0 l/m 9,7 km/h (2 Bft) NO 45 -4,3 C -6,8 C 16,1 km/h (3 Bft)
23.01.2020 07:03 -3,7 C 93 % 1036,6 hPa 0,0 l/m 6,4 km/h (2 Bft) O-NO 67 -4,7 C -3,6 C 9,7 km/h (2 Bft)
23.01.2020 06:03 -4,0 C 93 % 1036,9 hPa 0,0 l/m 6,4 km/h (2 Bft) NO 45 -5,0 C -3,9 C 9,7 km/h (2 Bft)
23.01.2020 05:03 -4,1 C 93 % 1037,1 hPa 0,0 l/m 6,4 km/h (2 Bft) O-NO 67 -5,1 C -4,0 C 6,4 km/h (2 Bft)
23.01.2020 04:03 -3,8 C 93 % 1037,7 hPa 0,0 l/m 3,2 km/h (1 Bft) NO 45 -4,8 C -3,8 C 4,8 km/h (1 Bft)
23.01.2020 03:03 -3,8 C 93 % 1038,0 hPa 0,0 l/m 1,6 km/h (1 Bft) NO 45 -4,8 C -3,8 C 4,8 km/h (1 Bft)
23.01.2020 02:03 -3,7 C 93 % 1038,6 hPa 0,0 l/m 3,2 km/h (1 Bft) O-NO 67 -4,7 C -3,7 C 4,8 km/h (1 Bft)
23.01.2020 01:03 -4,0 C 92 % 1038,6 hPa 0,0 l/m 3,2 km/h (1 Bft) O-NO 67 -5,1 C -4,0 C 3,2 km/h (1 Bft)
23.01.2020 00:03 -4,0 C 93 % 1039,2 hPa 0,0 l/m 4,8 km/h (1 Bft) O-NO 67 -5,0 C -4,0 C 6,4 km/h (2 Bft)
22.01.2020 23:03 -4,2 C 92 % 1039,3 hPa 0,0 l/m 4,8 km/h (1 Bft) S 180 -5,3 C -4,2 C 8,0 km/h (2 Bft)
22.01.2020 22:03 -4,1 C 92 % 1039,3 hPa 0,0 l/m 0,0 km/h (0 Bft) SO 135 -5,2 C -4,1 C 1,6 km/h (1 Bft)
22.01.2020 21:03 -3,6 C 92 % 1038,6 hPa 0,0 l/m 4,8 km/h (1 Bft) NO 45 -4,7 C -3,6 C 6,4 km/h (2 Bft)
22.01.2020 20:03 -3,1 C 92 % 1037,9 hPa 0,0 l/m 3,2 km/h (1 Bft) N 360 -4,2 C -3,1 C 4,8 km/h (1 Bft)
22.01.2020 19:03 -2,8 C 92 % 1038,0 hPa 0,0 l/m 1,6 km/h (1 Bft) O-NO 67 -3,9 C -2,8 C 1,6 km/h (1 Bft)
22.01.2020 18:03 -2,7 C 91 % 1037,6 hPa 0,0 l/m 3,2 km/h (1 Bft) S-SO 157 -4,0 C -2,7 C 6,4 km/h (2 Bft)
22.01.2020 18:00 -2,7 C 91 % 1037,6 hPa 0,0 l/m 0,0 km/h (0 Bft) N 0 -4,0 C -2,7 C 0,0 km/h (0 Bft)
_ Min-Zeit 23:16 14:10 16:33 - 18:00 - - 23:16 11:27 18:00
Minimum _ -4,3 C 87 % 1030,1 hPa - 0,0 km/h (0 Bft) - - -5,4 C -9,3 C 0,0 km/h (0 Bft)
_ Max-Zeit 14:06 08:43 22:20 18:00 11:27 - - 14:06 14:03 11:27
Maximum _ -0,1 C 94 % 1039,7 hPa 0,0 l/m 16,1 km/h
NO (3 Bft)
- - -1,8 C -0,2 C 19,3 km/h
O-NO (3 Bft)
Durchschnitt _ -2,8 C 92 % 1036,4 hPa #0,0 l/m 4,3 km/h (1 Bft) O-NO - -4,0 C -3,1 C 6,7 km/h (2 Bft)